DTMB

Details ICAO DTMB (MIR)
Name Monastir Habib Bourguiba Intl
Region Tunisia
Timezone Africa/Tunis (UTC+1.0)
Plans Departing 111
Arriving 110
Stats Elevation 9 ft / 3 m (AMSL)
Location 35.757843° 10.754025°
Runways 1
Magnetic Variation 2.433° E
Sunrise 2017-12-14 06:20:21 UTC / 2017-12-14 07:20:21 Local
Sunset 2017-12-14 16:05:45 UTC / 2017-12-14 17:05:45 Local
Advertisement - Login to hide

Runways

ID Width Length Bearing (true) Bearing (mag) Surface Threshold Offset Overrun Length
07 148 ft / 45 m 9,627 ft / 2,934 m 73.54° 71.11° Asphalt 0 ft / 0 m 164 ft / 50 m
25 148 ft / 45 m 9,627 ft / 2,934 m 253.56° 251.13° Asphalt 0 ft / 0 m 164 ft / 50 m

Approach Navaids

Runway Type Ident Frequency Range Bearing (true) Bearing (mag) Slope Elevation
07 Localiser MIS 109.90 MHz 18 nm / 33 km 73.57° 71.14° - 9 ft / 3 m (AMSL)
07 Glidescope MIS 109.90 MHz 10 nm / 19 km 73.55° 71.12° 3.00° 9 ft / 3 m (AMSL)

Map

Weather


0- 5 10 15 20 25 30 35+ Temperature / ° C

Clouds and Precipitation
Forecast for 2017-12-14 18:00 UTC. Updated 4 minutes ago

Ground ~20,000 ft ~40,000 ft Winds

METAR

DTMB 141700Z 17003KT CAVOK 16/10 Q1020

TAF

TAF DTMB 141100Z 1412/1512 21010KT 9999 FEW020= TAF DTNH 141100Z 1412/1512 23012KT 99997?9?6LP TEMPO 1414/1422 VRB03KT

Frequencies

Tower 118.30 MHz BOURGUIBA TWR
Approach 119.30 MHz BOURGUIBA APP
Warning: Do not use this data for real-world aviation or navigation. No guarantee of current accuracy is given.